createdAt,value
2018-06-30T00:02:15.314Z,10.23
2018-06-30T00:04:47.972Z,10.43
2018-06-30T00:07:15.417Z,10.87
2018-06-30T00:09:43.237Z,11.57
2018-06-30T00:12:10.720Z,10.57
2018-06-30T00:14:38.114Z,10.77
2018-06-30T00:17:05.520Z,9.73
2018-06-30T00:19:32.973Z,9.47
2018-06-30T00:22:00.357Z,10.57
2018-06-30T00:24:27.721Z,11.53
2018-06-30T00:27:00.458Z,10.60
2018-06-30T00:29:27.876Z,9.77
2018-06-30T00:31:55.176Z,9.40
2018-06-30T00:34:22.605Z,12.03
2018-06-30T00:36:49.987Z,11.27
2018-06-30T00:39:17.389Z,11.57
2018-06-30T00:41:44.717Z,10.60
2018-06-30T00:44:12.549Z,10.50
2018-06-30T00:46:39.934Z,13.50
2018-06-30T00:49:07.340Z,13.47
2018-06-30T00:51:34.790Z,11.57
2018-06-30T00:54:02.210Z,12.53
2018-06-30T00:56:29.641Z,12.00
2018-06-30T00:58:57.061Z,12.80
2018-06-30T01:01:24.464Z,11.90
2018-06-30T01:03:51.842Z,11.50
2018-06-30T01:06:19.298Z,12.70
2018-06-30T01:08:46.739Z,13.00
2018-06-30T01:11:14.886Z,12.33
2018-06-30T01:13:42.315Z,12.37
2018-06-30T01:16:09.748Z,12.30
2018-06-30T01:18:37.126Z,12.20
2018-06-30T01:21:04.567Z,12.57
2018-06-30T01:23:31.907Z,12.30
2018-06-30T01:25:59.251Z,12.17
2018-06-30T01:28:26.657Z,12.57
2018-06-30T01:30:53.991Z,11.33
2018-06-30T01:33:21.428Z,13.30
2018-06-30T01:35:48.837Z,12.63
2018-06-30T01:38:16.333Z,11.80
2018-06-30T01:40:43.682Z,11.93
2018-06-30T01:43:11.067Z,12.60
2018-06-30T01:45:38.456Z,11.43
2018-06-30T01:48:05.808Z,11.83
2018-06-30T01:50:33.185Z,12.67
2018-06-30T01:53:00.553Z,12.63
2018-06-30T01:55:28.034Z,12.20
2018-06-30T01:57:55.445Z,12.23
2018-06-30T02:00:22.914Z,12.80
2018-06-30T02:02:50.380Z,12.50
2018-06-30T02:05:17.752Z,12.83
2018-06-30T02:07:45.156Z,11.97
2018-06-30T02:10:12.537Z,11.50
2018-06-30T02:12:39.944Z,12.30
2018-06-30T02:15:07.404Z,12.40
2018-06-30T02:17:34.924Z,11.43
2018-06-30T02:20:02.296Z,12.80
2018-06-30T02:22:29.701Z,12.03
2018-06-30T02:24:57.092Z,12.73
2018-06-30T02:27:24.486Z,11.70
2018-06-30T02:29:51.860Z,13.13
2018-06-30T02:32:19.219Z,12.60
2018-06-30T02:34:46.557Z,13.20
2018-06-30T02:37:13.928Z,13.27
2018-06-30T02:39:41.312Z,12.47
2018-06-30T02:42:08.680Z,13.70
2018-06-30T02:44:36.135Z,12.33
2018-06-30T02:47:03.511Z,13.33
2018-06-30T02:49:30.932Z,12.23
2018-06-30T02:51:58.317Z,12.80
2018-06-30T02:54:25.716Z,12.70
2018-06-30T02:56:53.129Z,13.60
2018-06-30T02:59:20.670Z,12.83
2018-06-30T03:01:48.070Z,12.60
2018-06-30T03:04:15.469Z,12.27
2018-06-30T03:06:42.852Z,11.57
2018-06-30T03:09:10.889Z,12.10
2018-06-30T03:11:38.280Z,11.97
2018-06-30T03:14:05.631Z,21.27
2018-06-30T03:16:33.033Z,14.53
2018-06-30T03:19:00.496Z,11.80
2018-06-30T03:21:27.829Z,12.47
2018-06-30T03:23:55.192Z,11.50
2018-06-30T03:26:22.563Z,11.27
2018-06-30T03:28:50.029Z,11.30
2018-06-30T03:31:17.383Z,11.43
2018-06-30T03:33:45.606Z,11.27
2018-06-30T03:36:12.899Z,10.20
2018-06-30T03:38:40.258Z,9.90
2018-06-30T03:41:07.716Z,10.50
2018-06-30T03:43:35.093Z,9.70
2018-06-30T03:46:02.489Z,10.13
2018-06-30T03:48:29.864Z,9.10
2018-06-30T03:50:57.256Z,8.87
2018-06-30T03:53:24.576Z,9.63
2018-06-30T03:55:52.143Z,10.27
2018-06-30T03:58:19.623Z,9.07
2018-06-30T04:00:46.967Z,7.90
2018-06-30T04:03:14.313Z,8.37
2018-06-30T04:05:41.642Z,9.00
2018-06-30T04:08:09.019Z,7.77
2018-06-30T04:10:36.420Z,7.87
2018-06-30T04:13:03.718Z,8.23
2018-06-30T04:15:31.299Z,8.30
2018-06-30T04:17:58.654Z,8.10
2018-06-30T04:20:26.075Z,8.77
2018-06-30T04:22:53.409Z,7.47
2018-06-30T04:25:20.882Z,8.50
2018-06-30T04:27:48.447Z,7.50
2018-06-30T04:30:15.833Z,8.07
2018-06-30T04:32:43.225Z,8.03
2018-06-30T04:35:10.576Z,8.17
2018-06-30T04:37:37.921Z,6.80
2018-06-30T04:40:05.442Z,7.83
2018-06-30T04:42:33.364Z,7.40
2018-06-30T04:45:00.689Z,6.40
2018-06-30T04:47:28.216Z,6.67
2018-06-30T04:49:55.580Z,7.30
2018-06-30T04:52:22.941Z,7.20
2018-06-30T04:54:50.364Z,6.93
2018-06-30T04:57:17.693Z,6.50
2018-06-30T04:59:45.029Z,5.80
2018-06-30T05:02:12.410Z,5.80
2018-06-30T05:04:39.763Z,5.90
2018-06-30T05:07:07.405Z,6.40
2018-06-30T05:09:35.068Z,6.67
2018-06-30T05:12:02.480Z,6.50
2018-06-30T05:14:30.278Z,6.40
2018-06-30T05:16:57.666Z,6.37
2018-06-30T05:19:24.993Z,6.00
2018-06-30T05:21:52.351Z,6.10
2018-06-30T05:24:19.691Z,6.60
2018-06-30T05:26:47.040Z,6.00
2018-06-30T05:29:14.416Z,5.73
2018-06-30T05:31:41.867Z,7.03
2018-06-30T05:34:09.317Z,6.77
2018-06-30T05:36:36.849Z,7.13
2018-06-30T05:39:05.961Z,6.20
2018-06-30T05:41:33.320Z,7.13
2018-06-30T05:44:00.722Z,6.27
2018-06-30T05:46:28.115Z,7.00
2018-06-30T05:48:55.534Z,6.33
2018-06-30T05:51:22.904Z,6.77
2018-06-30T05:53:50.281Z,6.47
2018-06-30T05:56:17.636Z,6.03
2018-06-30T05:58:45.079Z,6.33
2018-06-30T06:01:12.478Z,6.17
2018-06-30T06:03:40.050Z,5.50
2018-06-30T06:06:07.460Z,6.63
2018-06-30T06:08:34.891Z,6.20
2018-06-30T06:11:02.454Z,6.40
2018-06-30T06:13:29.964Z,5.50
2018-06-30T06:15:58.931Z,4.80
2018-06-30T06:18:26.339Z,5.20
2018-06-30T06:20:53.736Z,7.70
2018-06-30T06:23:21.095Z,4.60
2018-06-30T06:25:48.613Z,4.30
2018-06-30T06:28:15.997Z,4.47
2018-06-30T06:30:43.400Z,7.50
2018-06-30T06:33:10.776Z,4.17
2018-06-30T06:35:38.127Z,4.53
2018-06-30T06:38:05.465Z,4.03
2018-06-30T06:40:32.917Z,5.20
2018-06-30T06:43:00.314Z,4.73
2018-06-30T06:45:27.671Z,4.70
2018-06-30T06:47:55.096Z,4.47
2018-06-30T06:50:22.440Z,4.50
2018-06-30T06:52:49.856Z,4.70
2018-06-30T06:55:17.208Z,4.13
2018-06-30T06:57:44.650Z,5.20
2018-06-30T07:00:12.078Z,4.87
2018-06-30T07:02:39.381Z,4.50
2018-06-30T07:05:06.812Z,7.20
2018-06-30T07:07:34.185Z,4.63
2018-06-30T07:10:01.763Z,4.13
2018-06-30T07:12:29.235Z,3.77
2018-06-30T07:14:56.606Z,5.60
2018-06-30T07:17:24.049Z,4.20
2018-06-30T07:19:51.737Z,3.80
2018-06-30T07:22:19.233Z,4.13
2018-06-30T07:24:46.863Z,4.37
2018-06-30T07:27:14.289Z,5.63
2018-06-30T07:29:42.609Z,4.23
2018-06-30T07:32:10.124Z,3.67
2018-06-30T07:34:37.543Z,3.77
2018-06-30T07:37:04.936Z,3.93
2018-06-30T07:39:32.448Z,4.07
2018-06-30T07:42:01.185Z,4.07
2018-06-30T07:44:28.537Z,6.13
2018-06-30T07:46:56.993Z,4.43
2018-06-30T07:49:24.360Z,4.10
2018-06-30T07:51:51.727Z,3.83
2018-06-30T07:54:19.150Z,4.00
2018-06-30T07:56:47.044Z,4.40
2018-06-30T07:59:14.494Z,4.50
2018-06-30T08:01:41.955Z,3.63
2018-06-30T08:04:09.625Z,4.20
2018-06-30T08:06:36.885Z,4.30
2018-06-30T08:09:05.996Z,3.70
2018-06-30T08:11:34.313Z,3.97
2018-06-30T08:14:01.834Z,3.93
2018-06-30T08:16:29.375Z,4.17
2018-06-30T08:18:56.855Z,4.00
2018-06-30T08:21:24.495Z,4.60
2018-06-30T08:23:51.931Z,4.20
2018-06-30T08:26:19.339Z,3.80
2018-06-30T08:28:46.659Z,4.23
2018-06-30T08:31:14.147Z,4.13
2018-06-30T08:33:41.504Z,3.80
2018-06-30T08:36:08.916Z,4.80
2018-06-30T08:38:36.264Z,4.00
2018-06-30T08:41:03.647Z,5.47
2018-06-30T08:43:31.102Z,4.50
2018-06-30T08:45:59.444Z,4.50
2018-06-30T08:48:26.825Z,5.73
2018-06-30T08:50:54.162Z,3.77
2018-06-30T08:53:21.576Z,3.90
2018-06-30T08:55:48.882Z,4.13
2018-06-30T08:58:16.244Z,4.43
2018-06-30T09:00:43.623Z,6.03
2018-06-30T09:03:10.992Z,4.20
2018-06-30T09:05:38.395Z,4.70
2018-06-30T09:08:05.885Z,3.97
2018-06-30T09:10:35.116Z,4.20
2018-06-30T09:13:02.584Z,4.60
2018-06-30T09:15:29.966Z,4.83
2018-06-30T09:17:57.328Z,4.80
2018-06-30T09:20:24.683Z,4.07
2018-06-30T09:22:52.053Z,4.37
2018-06-30T09:25:19.433Z,4.23
2018-06-30T09:27:46.861Z,4.20
2018-06-30T09:30:15.073Z,3.97
2018-06-30T09:32:42.531Z,5.00
2018-06-30T09:35:09.910Z,5.23
2018-06-30T09:37:37.947Z,4.17
2018-06-30T09:40:05.641Z,4.70
2018-06-30T09:42:33.032Z,3.97
2018-06-30T09:45:00.410Z,4.30
2018-06-30T09:47:27.737Z,4.10
2018-06-30T09:49:55.692Z,5.10
2018-06-30T09:52:23.025Z,4.23
2018-06-30T09:54:50.385Z,4.37
2018-06-30T09:57:17.770Z,4.27
2018-06-30T09:59:47.073Z,4.90
2018-06-30T10:02:14.418Z,4.07
2018-06-30T10:04:41.785Z,4.33
2018-06-30T10:07:09.280Z,3.87
2018-06-30T10:09:36.831Z,4.50
2018-06-30T10:12:04.148Z,4.13
2018-06-30T10:14:32.365Z,3.73
2018-06-30T10:16:59.703Z,6.00
2018-06-30T10:19:27.129Z,3.10
2018-06-30T10:21:54.867Z,3.57
2018-06-30T10:24:22.279Z,3.97
2018-06-30T10:26:49.610Z,4.33
2018-06-30T10:29:17.958Z,4.50
2018-06-30T10:31:46.290Z,3.63
2018-06-30T10:34:13.755Z,3.00
2018-06-30T10:36:41.222Z,3.60
2018-06-30T10:39:11.876Z,4.27
2018-06-30T10:41:39.575Z,4.57
2018-06-30T10:44:07.019Z,3.67
2018-06-30T10:46:34.331Z,4.00
2018-06-30T10:49:01.775Z,4.30
2018-06-30T10:51:29.129Z,3.90
2018-06-30T10:53:56.534Z,3.90
2018-06-30T10:56:23.868Z,3.13
2018-06-30T10:58:51.302Z,3.77
2018-06-30T11:01:18.687Z,4.10
2018-06-30T11:03:46.138Z,3.77
2018-06-30T11:06:13.471Z,3.53
2018-06-30T11:08:41.028Z,3.37
2018-06-30T11:11:08.389Z,3.27
2018-06-30T11:13:37.529Z,2.90
2018-06-30T11:16:04.992Z,7.40
2018-06-30T11:18:32.464Z,3.27
2018-06-30T11:20:59.840Z,3.77
2018-06-30T11:23:27.325Z,4.13
2018-06-30T11:25:54.721Z,3.67
2018-06-30T11:28:22.080Z,3.20
2018-06-30T11:30:49.583Z,3.90
2018-06-30T11:33:22.954Z,3.87
2018-06-30T11:35:50.364Z,5.17
2018-06-30T11:38:17.760Z,3.50
2018-06-30T11:40:45.338Z,3.60
2018-06-30T11:43:12.778Z,4.37
2018-06-30T11:45:40.197Z,4.30
2018-06-30T11:48:07.586Z,3.90
2018-06-30T11:50:36.001Z,4.50
2018-06-30T11:53:04.120Z,4.30
2018-06-30T11:55:31.578Z,5.50
2018-06-30T11:57:58.960Z,4.20
2018-06-30T12:00:26.445Z,3.80
2018-06-30T12:02:53.779Z,3.97
2018-06-30T12:05:21.111Z,3.53
2018-06-30T12:07:50.354Z,4.23
2018-06-30T12:10:17.924Z,4.67
2018-06-30T12:12:45.259Z,4.33
2018-06-30T12:15:12.744Z,4.23
2018-06-30T12:17:40.098Z,4.70
2018-06-30T12:20:07.494Z,4.43
2018-06-30T12:22:34.855Z,3.77
2018-06-30T12:25:02.291Z,4.10
2018-06-30T12:27:29.670Z,4.33
2018-06-30T12:29:58.715Z,4.60
2018-06-30T12:32:26.202Z,3.93
2018-06-30T12:34:53.538Z,3.60
2018-06-30T12:37:20.915Z,3.90
2018-06-30T12:39:48.298Z,3.97
2018-06-30T12:42:15.726Z,4.13
2018-06-30T12:44:47.119Z,6.20
2018-06-30T12:47:16.364Z,4.00
2018-06-30T12:49:44.062Z,4.67
2018-06-30T12:52:11.436Z,3.53
2018-06-30T12:54:39.038Z,3.93
2018-06-30T12:57:06.266Z,5.53
2018-06-30T12:59:33.645Z,3.50
2018-06-30T13:02:01.025Z,5.30
2018-06-30T13:04:28.424Z,4.30
2018-06-30T13:06:56.504Z,3.80
2018-06-30T13:09:23.824Z,4.00
2018-06-30T13:11:51.217Z,4.67
2018-06-30T13:14:18.755Z,4.17
2018-06-30T13:22:14.727Z,5.33
2018-06-30T13:24:42.122Z,3.70
2018-06-30T13:27:09.473Z,3.70
2018-06-30T13:29:37.660Z,3.93
2018-06-30T13:32:05.461Z,3.60
2018-06-30T13:34:32.844Z,3.90
2018-06-30T13:37:00.427Z,7.60
2018-06-30T13:39:27.764Z,5.57
2018-06-30T13:41:55.794Z,3.43
2018-06-30T13:44:23.231Z,3.97
2018-06-30T13:46:50.554Z,4.00
2018-06-30T13:49:17.976Z,3.83
2018-06-30T13:51:45.478Z,3.97
2018-06-30T13:54:13.064Z,3.43
2018-06-30T13:56:40.602Z,4.97
2018-06-30T13:59:07.976Z,3.40
2018-06-30T14:01:35.465Z,3.27
2018-06-30T14:04:02.878Z,3.67
2018-06-30T14:06:30.457Z,3.43
2018-06-30T14:08:57.940Z,3.23
2018-06-30T14:11:25.425Z,3.90
2018-06-30T14:13:52.810Z,4.47
2018-06-30T14:16:20.615Z,3.50
2018-06-30T14:18:48.043Z,4.23
2018-06-30T14:21:16.202Z,4.10
2018-06-30T14:23:43.621Z,3.47
2018-06-30T14:26:10.975Z,4.13
2018-06-30T14:28:38.376Z,4.60
2018-06-30T14:31:05.811Z,4.60
2018-06-30T14:33:33.304Z,4.43
2018-06-30T14:36:00.742Z,4.73
2018-06-30T14:38:28.176Z,3.80
2018-06-30T14:40:55.929Z,4.47
2018-06-30T14:43:23.481Z,4.00
2018-06-30T14:45:51.104Z,4.33
2018-06-30T14:48:18.860Z,4.57
2018-06-30T14:50:46.382Z,4.87
2018-06-30T14:53:13.894Z,4.20
2018-06-30T14:55:41.543Z,4.00
2018-06-30T14:58:09.187Z,4.43
2018-06-30T15:00:36.573Z,4.10
2018-06-30T15:03:03.971Z,4.53
2018-06-30T15:05:31.396Z,4.17
2018-06-30T15:07:59.277Z,4.50
2018-06-30T15:10:27.196Z,4.50
2018-06-30T15:12:54.732Z,5.40
2018-06-30T15:15:22.172Z,4.77
2018-06-30T15:17:49.609Z,4.90
2018-06-30T15:20:17.678Z,5.67
2018-06-30T15:22:45.025Z,4.40
2018-06-30T15:25:12.392Z,4.73
2018-06-30T15:27:39.750Z,5.30
2018-06-30T15:30:07.191Z,12.63
2018-06-30T15:32:34.559Z,6.60
2018-06-30T15:35:02.009Z,5.60
2018-06-30T15:37:29.552Z,5.33
2018-06-30T15:39:56.989Z,4.83
2018-06-30T15:42:24.524Z,4.97
2018-06-30T15:44:51.959Z,6.83
2018-06-30T15:47:19.396Z,5.77
2018-06-30T15:49:46.779Z,4.97
2018-06-30T15:52:14.229Z,5.80
2018-06-30T15:54:41.597Z,6.77
2018-06-30T15:57:08.945Z,4.93
2018-06-30T15:59:36.399Z,5.03
2018-06-30T16:02:03.768Z,4.97
2018-06-30T16:04:31.353Z,4.63
2018-06-30T16:06:58.777Z,4.53
2018-06-30T16:09:26.440Z,5.23
2018-06-30T16:11:53.797Z,4.67
2018-06-30T16:14:21.560Z,5.50
2018-06-30T16:16:49.123Z,5.27
2018-06-30T16:19:16.979Z,5.33
2018-06-30T16:21:44.352Z,5.47
2018-06-30T16:24:11.944Z,4.60
2018-06-30T16:26:39.337Z,5.70
2018-06-30T16:29:06.733Z,5.83
2018-06-30T16:31:34.303Z,5.83
2018-06-30T16:34:01.732Z,5.37
2018-06-30T16:36:29.090Z,6.33
2018-06-30T16:38:56.734Z,7.77
2018-06-30T16:41:24.264Z,6.10
2018-06-30T16:43:51.584Z,5.80
2018-06-30T16:46:19.012Z,6.10
2018-06-30T16:48:46.492Z,6.00
2018-06-30T16:51:13.904Z,5.77
2018-06-30T16:53:41.929Z,6.63
2018-06-30T16:56:09.617Z,6.60
2018-06-30T16:58:39.763Z,6.77
2018-06-30T17:01:07.272Z,8.07
2018-06-30T17:03:35.200Z,6.10
2018-06-30T17:06:02.741Z,5.63
2018-06-30T17:08:30.387Z,6.17
2018-06-30T17:10:57.879Z,6.00
2018-06-30T17:13:25.330Z,5.90
2018-06-30T17:15:52.700Z,5.77
2018-06-30T17:18:20.260Z,6.10
2018-06-30T17:20:47.597Z,5.23
2018-06-30T17:23:15.031Z,5.03
2018-06-30T17:25:42.620Z,6.43
2018-06-30T17:28:10.017Z,5.20
2018-06-30T17:30:37.576Z,5.00
2018-06-30T17:33:05.286Z,5.80
2018-06-30T17:35:33.373Z,5.57
2018-06-30T17:38:00.905Z,4.90
2018-06-30T17:40:28.321Z,5.90
2018-06-30T17:42:55.737Z,4.67
2018-06-30T17:45:23.338Z,5.47
2018-06-30T17:47:50.779Z,4.63
2018-06-30T17:50:18.137Z,5.20
2018-06-30T17:52:45.557Z,5.37
2018-06-30T17:55:13.130Z,5.13
2018-06-30T17:57:40.474Z,4.60
2018-06-30T18:00:08.329Z,5.00
2018-06-30T18:02:36.012Z,5.50
2018-06-30T18:05:03.539Z,5.10
2018-06-30T18:07:30.884Z,5.60
2018-06-30T18:09:58.318Z,6.23
2018-06-30T18:12:25.764Z,5.27
2018-06-30T18:14:53.123Z,5.50
2018-06-30T18:17:20.556Z,6.90
2018-06-30T18:19:47.966Z,5.10
2018-06-30T18:22:15.305Z,5.83
2018-06-30T18:24:43.205Z,5.90
2018-06-30T18:27:10.857Z,5.50
2018-06-30T18:29:39.858Z,5.40
2018-06-30T18:32:07.583Z,4.93
2018-06-30T18:34:35.230Z,5.23
2018-06-30T18:37:02.732Z,5.10
2018-06-30T18:39:30.141Z,5.27
2018-06-30T18:41:57.769Z,4.60
2018-06-30T18:44:25.325Z,4.77
2018-06-30T18:46:53.146Z,5.30
2018-06-30T18:49:20.677Z,5.13
2018-06-30T18:51:48.544Z,5.17
2018-06-30T18:54:16.296Z,5.60
2018-06-30T18:56:44.026Z,4.67
2018-06-30T18:59:12.006Z,5.23
2018-06-30T19:01:39.999Z,5.37
2018-06-30T19:04:08.270Z,4.53
2018-06-30T19:06:36.153Z,4.93
2018-06-30T19:09:04.617Z,4.73
2018-06-30T19:11:32.592Z,4.47
2018-06-30T19:14:00.058Z,4.20
2018-06-30T19:16:27.606Z,3.97
2018-06-30T19:18:55.543Z,3.87
2018-06-30T19:21:23.255Z,4.23
2018-06-30T19:23:50.944Z,3.60
2018-06-30T19:26:18.456Z,3.13
2018-06-30T19:28:45.897Z,4.80
2018-06-30T19:31:14.470Z,5.40
2018-06-30T19:33:42.065Z,3.07
2018-06-30T19:36:09.911Z,3.03
2018-06-30T19:38:38.223Z,3.07
2018-06-30T19:41:05.874Z,2.73
2018-06-30T19:43:33.478Z,2.73
2018-06-30T19:46:01.357Z,2.70
2018-06-30T19:48:28.963Z,3.17
2018-06-30T19:50:57.029Z,2.60
2018-06-30T19:53:24.699Z,3.63
2018-06-30T19:55:53.940Z,1.90
2018-06-30T19:58:23.144Z,5.17
2018-06-30T20:00:50.906Z,2.67
2018-06-30T20:03:18.862Z,1.70
2018-06-30T20:05:46.598Z,2.13
2018-06-30T20:08:14.167Z,2.60
2018-06-30T20:10:42.010Z,1.70
2018-06-30T20:13:10.097Z,2.20
2018-06-30T20:15:37.704Z,1.80
2018-06-30T20:18:08.631Z,1.50
2018-06-30T20:20:36.417Z,1.60
2018-06-30T20:23:03.859Z,1.60
2018-06-30T20:25:31.662Z,2.30
2018-06-30T20:27:59.198Z,2.10
2018-06-30T20:30:26.784Z,1.70
2018-06-30T20:32:55.453Z,2.50
2018-06-30T20:35:22.928Z,1.57
2018-06-30T20:37:50.538Z,2.97
2018-06-30T20:40:18.157Z,2.97
2018-06-30T20:42:45.552Z,1.50
2018-06-30T20:45:12.957Z,1.73
2018-06-30T20:47:40.345Z,2.17
2018-06-30T20:50:07.948Z,1.40
2018-06-30T20:52:35.317Z,1.80
2018-06-30T20:55:02.698Z,1.97
2018-06-30T20:57:30.145Z,0.70
2018-06-30T20:59:57.760Z,1.00
2018-06-30T21:02:25.201Z,1.97
2018-06-30T21:04:54.345Z,1.07
2018-06-30T21:07:21.837Z,1.70
2018-06-30T21:09:49.215Z,1.33
2018-06-30T21:12:16.720Z,1.53
2018-06-30T21:14:44.106Z,0.97
2018-06-30T21:17:11.461Z,1.53
2018-06-30T21:19:38.802Z,1.30
2018-06-30T21:22:06.166Z,1.30
2018-06-30T21:24:33.785Z,0.97
2018-06-30T21:27:01.326Z,0.80
2018-06-30T21:29:28.614Z,1.10
2018-06-30T21:31:56.056Z,1.50
2018-06-30T21:34:23.381Z,1.50
2018-06-30T21:36:50.739Z,0.70
2018-06-30T21:39:18.132Z,1.47
2018-06-30T21:41:45.543Z,1.43
2018-06-30T21:44:13.077Z,0.60
2018-06-30T21:46:40.409Z,0.70
2018-06-30T21:49:07.749Z,0.97
2018-06-30T21:51:35.120Z,0.63
2018-06-30T21:54:02.644Z,1.50
2018-06-30T21:56:29.987Z,4.70
2018-06-30T21:58:57.520Z,1.17
2018-06-30T22:01:26.031Z,1.23
2018-06-30T22:03:53.935Z,2.83
2018-06-30T22:06:21.190Z,1.37
2018-06-30T22:08:48.517Z,1.27
2018-06-30T22:11:15.912Z,0.70
2018-06-30T22:13:43.205Z,3.80
2018-06-30T22:16:10.567Z,1.80
2018-06-30T22:18:38.055Z,0.60
2018-06-30T22:21:05.391Z,3.30
2018-06-30T22:23:32.749Z,1.23
2018-06-30T22:26:00.155Z,1.10
2018-06-30T22:28:27.551Z,2.73
2018-06-30T22:30:54.905Z,1.63
2018-06-30T22:33:22.280Z,1.47
2018-06-30T22:35:49.603Z,2.17
2018-06-30T22:38:17.735Z,0.77
2018-06-30T22:40:45.168Z,1.27
2018-06-30T22:43:12.520Z,1.67
2018-06-30T22:45:39.913Z,0.93
2018-06-30T22:48:07.313Z,1.60
2018-06-30T22:50:34.697Z,2.03
2018-06-30T22:53:02.082Z,0.70
2018-06-30T22:55:29.380Z,1.10
2018-06-30T22:57:56.794Z,3.40
2018-06-30T23:00:24.274Z,1.40
2018-06-30T23:02:51.573Z,1.47
2018-06-30T23:05:18.914Z,2.10
2018-06-30T23:07:46.249Z,0.53
2018-06-30T23:10:14.462Z,0.63
2018-06-30T23:12:42.279Z,1.33
2018-06-30T23:15:09.799Z,1.80
2018-06-30T23:17:37.505Z,3.37
2018-06-30T23:20:05.042Z,3.80
2018-06-30T23:22:50.308Z,2.17
2018-06-30T23:25:18.066Z,1.53
2018-06-30T23:27:45.774Z,1.23
2018-06-30T23:30:13.154Z,0.60
2018-06-30T23:32:40.508Z,1.60
2018-06-30T23:35:07.852Z,0.90
2018-06-30T23:37:35.213Z,1.70
2018-06-30T23:40:03.397Z,1.47
2018-06-30T23:42:30.746Z,1.40
2018-06-30T23:44:58.092Z,1.33
2018-06-30T23:47:25.508Z,1.90
2018-06-30T23:49:52.884Z,0.83
2018-06-30T23:52:20.220Z,2.00
2018-06-30T23:54:47.545Z,1.20
2018-06-30T23:57:14.850Z,3.10
2018-06-30T23:59:42.231Z,0.57
